createdAt,value
2019-04-07T00:05:24.280Z,12.7
2019-04-07T00:15:23.481Z,12.4
2019-04-07T00:25:22.741Z,12.3
2019-04-07T00:35:26.981Z,12.3
2019-04-07T00:45:21.515Z,12.2
2019-04-07T00:55:20.449Z,12.3
2019-04-07T01:05:19.526Z,12.4
2019-04-07T01:15:18.743Z,12.6
2019-04-07T01:25:17.946Z,12.7
2019-04-07T01:35:17.683Z,12.7
2019-04-07T01:45:16.891Z,12.7
2019-04-07T01:55:15.592Z,12.6
2019-04-07T02:05:15.505Z,12.5
2019-04-07T02:15:14.001Z,12.5
2019-04-07T02:25:13.213Z,12.5
2019-04-07T02:35:12.424Z,12.7
2019-04-07T02:45:11.632Z,12.8
2019-04-07T02:55:10.965Z,12.9
2019-04-07T03:05:10.062Z,12.8
2019-04-07T03:18:26.872Z,12.8
2019-04-07T03:28:24.130Z,12.7
2019-04-07T03:38:23.342Z,12.7
2019-04-07T03:48:23.122Z,12.7
2019-04-07T03:58:22.670Z,12.6
2019-04-07T04:08:20.977Z,12.5
2019-04-07T04:18:20.485Z,12.6
2019-04-07T04:28:20.335Z,12.7
2019-04-07T04:38:18.802Z,12.7
2019-04-07T04:48:18.082Z,12.7
2019-04-07T04:58:17.562Z,12.8
2019-04-07T05:08:17.526Z,12.7
2019-04-07T05:18:16.553Z,12.8
2019-04-07T05:28:15.410Z,12.9
2019-04-07T05:38:14.677Z,12
2019-04-07T05:48:17.278Z,11.6
2019-04-07T05:58:15.316Z,11.6
2019-04-07T06:08:21.665Z,11.6
2019-04-07T06:18:11.755Z,11.6
2019-04-07T06:28:10.335Z,11.9
2019-04-07T06:38:09.542Z,12.2
2019-04-07T06:48:09.299Z,12.4
2019-04-07T06:58:08.395Z,12.4
2019-04-07T07:08:07.299Z,12.7
2019-04-07T07:18:06.390Z,13.1
2019-04-07T07:28:07.516Z,13.4
2019-04-07T07:38:04.946Z,13.9
2019-04-07T07:48:04.219Z,14.4
2019-04-07T07:58:03.990Z,14.6
2019-04-07T08:08:02.450Z,14.8
2019-04-07T08:18:04.670Z,15.3
2019-04-07T08:28:03.548Z,15.4
2019-04-07T08:38:00.924Z,15.8
2019-04-07T08:47:59.511Z,16.4
2019-04-07T08:58:01.640Z,16.2
2019-04-07T09:07:57.720Z,16.9
2019-04-07T09:17:57.699Z,17.6
2019-04-07T09:27:56.142Z,17.9
2019-04-07T09:37:55.971Z,17.9
2019-04-07T09:47:55.213Z,18
2019-04-07T09:57:53.882Z,17.9
2019-04-07T10:07:53.238Z,17.6
2019-04-07T10:17:52.209Z,17.6
2019-04-07T10:27:51.964Z,17.4
2019-04-07T10:37:52.048Z,16.9
2019-04-07T10:47:50.178Z,16.6
2019-04-07T10:57:49.378Z,16.6
2019-04-07T11:07:48.337Z,16.1
2019-04-07T11:17:48.107Z,16.2
2019-04-07T11:27:47.328Z,16.1
2019-04-07T11:37:47.266Z,16.3
2019-04-07T11:47:45.961Z,16.4
2019-04-07T11:57:45.377Z,16.3
2019-04-07T12:07:44.598Z,16.2
2019-04-07T12:17:43.585Z,16.1
2019-04-07T12:27:43.838Z,16.3
2019-04-07T12:37:43.665Z,16.2
2019-04-07T12:47:41.146Z,16.3
2019-04-07T12:57:40.253Z,16.3
2019-04-07T13:07:40.284Z,16.3
2019-04-07T13:17:38.679Z,16.3
2019-04-07T13:47:40.838Z,15.9
2019-04-07T13:57:36.004Z,15.8
2019-04-07T14:07:35.311Z,15.9
2019-04-07T14:17:34.010Z,15.8
2019-04-07T14:27:33.238Z,16
2019-04-07T14:37:32.961Z,15.9
2019-04-07T14:47:32.376Z,15.8
2019-04-07T14:57:30.947Z,15.6
2019-04-07T15:07:30.076Z,15.4
2019-04-07T15:17:29.441Z,15.3
2019-04-07T15:27:28.651Z,15
2019-04-07T15:37:28.177Z,14.9
2019-04-07T15:47:27.658Z,14.8
2019-04-07T15:57:26.148Z,14.6
2019-04-07T16:07:26.036Z,14.3
2019-04-07T16:17:25.268Z,14.3
2019-04-07T16:27:23.958Z,14.1
2019-04-07T16:37:23.009Z,13.9
2019-04-07T16:47:24.683Z,14.1
2019-04-07T16:57:23.611Z,14.4
2019-04-07T17:07:21.845Z,14.6
2019-04-07T17:17:21.896Z,14.7
2019-04-07T17:27:19.371Z,14.8
2019-04-07T17:37:18.296Z,14.8
2019-04-07T17:47:17.794Z,14.8
2019-04-07T17:57:16.725Z,14.8
2019-04-07T18:07:16.347Z,14.8
2019-04-07T18:17:15.360Z,14.8
2019-04-07T18:27:16.953Z,14.7
2019-04-07T18:37:13.585Z,14.6
2019-04-07T18:47:14.988Z,14.6
2019-04-07T18:57:12.736Z,14.3
2019-04-07T19:07:15.068Z,14.2
2019-04-07T19:17:10.704Z,14.1
2019-04-07T19:27:14.254Z,14
2019-04-07T19:37:08.868Z,13.9
2019-04-07T19:47:08.090Z,13.9
2019-04-07T19:57:07.295Z,13.9
2019-04-07T20:07:06.998Z,13.9
2019-04-07T20:17:06.237Z,13.9
2019-04-07T20:27:04.948Z,13.8
2019-04-07T20:37:05.040Z,13.8
2019-04-07T20:47:03.376Z,13.8
2019-04-07T20:57:03.031Z,13.9
2019-04-07T21:13:16.689Z,13.9
2019-04-07T21:23:17.060Z,13.9
2019-04-07T21:33:13.691Z,13.8
2019-04-07T21:43:13.462Z,13.8
2019-04-07T21:53:12.253Z,13.9
2019-04-07T22:03:14.712Z,13.9
2019-04-07T22:13:10.597Z,13.9
2019-04-07T22:23:10.078Z,13.9
2019-04-07T22:33:09.516Z,13.9
2019-04-07T22:43:09.274Z,13.8
2019-04-07T22:53:07.790Z,13.7
2019-04-07T23:03:08.446Z,13.7
2019-04-07T23:11:19.342Z,13.6
2019-04-07T23:21:19.199Z,13.5
2019-04-07T23:31:17.762Z,13.4
2019-04-07T23:41:18.014Z,13.5
2019-04-07T23:51:16.438Z,13.6
